sensor_id;sensor_type;location;lat;lon;timestamp;pressure;altitude;pressure_sealevel;temperature;humidity
76627;BME280;65519;53.230;10.390;2024-03-02T00:01:51;100109.78;;;9.33;100.00
76627;BME280;65519;53.230;10.390;2024-03-02T00:04:16;100116.06;;;9.29;100.00
76627;BME280;65519;53.230;10.390;2024-03-02T00:06:42;100114.41;;;9.38;100.00
76627;BME280;65519;53.230;10.390;2024-03-02T00:09:09;100115.75;;;9.35;100.00
76627;BME280;65519;53.230;10.390;2024-03-02T00:11:37;100102.16;;;9.30;100.00
76627;BME280;65519;53.230;10.390;2024-03-02T00:14:03;100104.09;;;9.30;100.00
76627;BME280;65519;53.230;10.390;2024-03-02T00:16:32;100104.09;;;9.30;100.00
76627;BME280;65519;53.230;10.390;2024-03-02T00:19:05;100101.91;;;9.27;100.00
76627;BME280;65519;53.230;10.390;2024-03-02T00:21:32;100097.84;;;9.24;100.00
76627;BME280;65519;53.230;10.390;2024-03-02T00:23:59;100106.81;;;9.25;100.00
76627;BME280;65519;53.230;10.390;2024-03-02T00:26:25;100102.72;;;9.22;100.00
76627;BME280;65519;53.230;10.390;2024-03-02T00:28:54;100096.22;;;9.13;100.00
76627;BME280;65519;53.230;10.390;2024-03-02T00:31:22;100100.56;;;9.19;100.00
76627;BME280;65519;53.230;10.390;2024-03-02T00:33:48;100093.50;;;9.13;100.00
76627;BME280;65519;53.230;10.390;2024-03-02T00:36:15;100101.66;;;9.13;100.00
76627;BME280;65519;53.230;10.390;2024-03-02T00:41:22;100096.78;;;9.05;100.00
76627;BME280;65519;53.230;10.390;2024-03-02T00:44:04;100100.84;;;9.12;100.00
76627;BME280;65519;53.230;10.390;2024-03-02T00:46:41;100093.53;;;9.08;100.00
76627;BME280;65519;53.230;10.390;2024-03-02T00:51:39;100094.06;;;9.05;100.00
76627;BME280;65519;53.230;10.390;2024-03-02T00:54:05;100084.81;;;9.06;100.00
76627;BME280;65519;53.230;10.390;2024-03-02T00:56:32;100089.16;;;9.07;100.00
76627;BME280;65519;53.230;10.390;2024-03-02T00:58:58;100090.25;;;9.06;100.00
76627;BME280;65519;53.230;10.390;2024-03-02T01:01:23;100083.72;;;9.07;100.00
76627;BME280;65519;53.230;10.390;2024-03-02T01:03:49;100078.56;;;9.05;100.00
76627;BME280;65519;53.230;10.390;2024-03-02T01:06:16;100077.72;;;9.15;100.00
76627;BME280;65519;53.230;10.390;2024-03-02T01:08:42;100071.75;;;9.18;100.00
76627;BME280;65519;53.230;10.390;2024-03-02T01:11:07;100072.88;;;8.97;100.00
76627;BME280;65519;53.230;10.390;2024-03-02T01:13:33;100067.41;;;9.02;100.00
76627;BME280;65519;53.230;10.390;2024-03-02T01:15:59;100071.50;;;9.04;100.00
76627;BME280;65519;53.230;10.390;2024-03-02T01:18:25;100072.59;;;9.08;100.00
76627;BME280;65519;53.230;10.390;2024-03-02T01:20:51;100075.56;;;8.92;100.00
76627;BME280;65519;53.230;10.390;2024-03-02T01:23:23;100068.78;;;8.79;100.00
76627;BME280;65519;53.230;10.390;2024-03-02T01:25:49;100067.44;;;8.97;100.00
76627;BME280;65519;53.230;10.390;2024-03-02T01:28:16;100084.00;;;8.95;100.00
76627;BME280;65519;53.230;10.390;2024-03-02T01:30:42;100066.59;;;8.91;100.00
76627;BME280;65519;53.230;10.390;2024-03-02T01:33:07;100071.22;;;8.91;100.00
76627;BME280;65519;53.230;10.390;2024-03-02T01:35:33;100073.97;;;8.86;100.00
76627;BME280;65519;53.230;10.390;2024-03-02T01:38:00;100064.97;;;8.70;100.00
76627;BME280;65519;53.230;10.390;2024-03-02T01:40:25;100057.38;;;8.77;100.00
76627;BME280;65519;53.230;10.390;2024-03-02T01:42:53;100066.63;;;8.81;100.00
76627;BME280;65519;53.230;10.390;2024-03-02T01:45:23;100067.97;;;8.78;100.00
76627;BME280;65519;53.230;10.390;2024-03-02T01:47:49;100069.63;;;8.85;100.00
76627;BME280;65519;53.230;10.390;2024-03-02T01:50:15;100065.81;;;8.75;100.00
76627;BME280;65519;53.230;10.390;2024-03-02T01:52:40;100061.44;;;8.69;100.00
76627;BME280;65519;53.230;10.390;2024-03-02T01:55:06;100066.59;;;8.66;100.00
76627;BME280;65519;53.230;10.390;2024-03-02T01:57:33;100066.34;;;8.62;100.00
76627;BME280;65519;53.230;10.390;2024-03-02T01:59:59;100075.31;;;8.53;100.00
76627;BME280;65519;53.230;10.390;2024-03-02T02:02:25;100062.28;;;8.75;100.00
76627;BME280;65519;53.230;10.390;2024-03-02T02:04:50;100067.97;;;8.78;100.00
76627;BME280;65519;53.230;10.390;2024-03-02T02:07:16;100071.22;;;8.65;100.00
76627;BME280;65519;53.230;10.390;2024-03-02T02:09:42;100068.53;;;8.70;100.00
76627;BME280;65519;53.230;10.390;2024-03-02T02:12:08;100071.78;;;8.57;100.00
76627;BME280;65519;53.230;10.390;2024-03-02T02:14:34;100076.66;;;8.70;100.00
76627;BME280;65519;53.230;10.390;2024-03-02T02:16:59;100079.13;;;8.72;100.00
76627;BME280;65519;53.230;10.390;2024-03-02T02:19:25;100074.78;;;8.61;100.00
76627;BME280;65519;53.230;10.390;2024-03-02T02:21:50;100070.94;;;8.67;100.00
76627;BME280;65519;53.230;10.390;2024-03-02T02:24:16;100058.72;;;8.59;100.00
76627;BME280;65519;53.230;10.390;2024-03-02T02:26:41;100064.16;;;8.59;100.00
76627;BME280;65519;53.230;10.390;2024-03-02T02:29:07;100066.34;;;8.57;100.00
76627;BME280;65519;53.230;10.390;2024-03-02T02:31:39;100061.47;;;8.54;100.00
76627;BME280;65519;53.230;10.390;2024-03-02T02:34:06;100057.13;;;8.63;100.00
76627;BME280;65519;53.230;10.390;2024-03-02T02:36:32;100050.31;;;8.61;100.00
76627;BME280;65519;53.230;10.390;2024-03-02T02:39:02;100046.78;;;8.60;100.00
76627;BME280;65519;53.230;10.390;2024-03-02T02:41:29;100045.94;;;8.55;100.00
76627;BME280;65519;53.230;10.390;2024-03-02T02:43:55;100058.72;;;8.59;100.00
76627;BME280;65519;53.230;10.390;2024-03-02T02:46:20;100050.59;;;8.69;100.00
76627;BME280;65519;53.230;10.390;2024-03-02T02:48:45;100059.28;;;8.61;100.00
76627;BME280;65519;53.230;10.390;2024-03-02T02:51:11;100056.00;;;8.49;100.00
76627;BME280;65519;53.230;10.390;2024-03-02T02:53:36;100056.03;;;8.54;100.00
76627;BME280;65519;53.230;10.390;2024-03-02T02:56:08;100053.84;;;8.56;100.00
76627;BME280;65519;53.230;10.390;2024-03-02T02:58:34;100053.31;;;8.54;100.00
76627;BME280;65519;53.230;10.390;2024-03-02T03:01:00;100052.75;;;8.52;100.00
76627;BME280;65519;53.230;10.390;2024-03-02T03:03:25;100045.94;;;8.45;100.00
76627;BME280;65519;53.230;10.390;2024-03-02T03:05:50;100058.47;;;8.51;100.00
76627;BME280;65519;53.230;10.390;2024-03-02T03:08:16;100048.41;;;8.46;100.00
76627;BME280;65519;53.230;10.390;2024-03-02T03:10:42;100051.66;;;8.48;100.00
76627;BME280;65519;53.230;10.390;2024-03-02T03:13:07;100052.19;;;8.35;100.00
76627;BME280;65519;53.230;10.390;2024-03-02T03:15:36;100046.75;;;8.45;100.00
76627;BME280;65519;53.230;10.390;2024-03-02T03:18:02;100046.50;;;8.41;100.00
76627;BME280;65519;53.230;10.390;2024-03-02T03:20:29;100044.59;;;8.47;100.00
76627;BME280;65519;53.230;10.390;2024-03-02T03:22:55;100030.75;;;8.49;100.00
76627;BME280;65519;53.230;10.390;2024-03-02T03:25:21;100045.69;;;8.41;100.00
76627;BME280;65519;53.230;10.390;2024-03-02T03:27:46;100036.97;;;8.44;100.00
76627;BME280;65519;53.230;10.390;2024-03-02T03:30:12;100034.56;;;8.43;100.00
76627;BME280;65519;53.230;10.390;2024-03-02T03:32:37;100040.50;;;8.45;100.00
76627;BME280;65519;53.230;10.390;2024-03-02T03:35:03;100038.59;;;8.35;100.00
76627;BME280;65519;53.230;10.390;2024-03-02T03:37:29;100029.94;;;8.43;100.00
76627;BME280;65519;53.230;10.390;2024-03-02T03:40:05;100033.75;;;8.42;100.00
76627;BME280;65519;53.230;10.390;2024-03-02T03:42:37;100036.72;;;8.40;100.00
76627;BME280;65519;53.230;10.390;2024-03-02T03:45:03;100036.44;;;8.47;100.00
76627;BME280;65519;53.230;10.390;2024-03-02T03:47:28;100029.41;;;8.51;100.00
76627;BME280;65519;53.230;10.390;2024-03-02T03:49:54;100036.44;;;8.47;100.00
76627;BME280;65519;53.230;10.390;2024-03-02T03:52:19;100037.25;;;8.48;100.00
76627;BME280;65519;53.230;10.390;2024-03-02T03:54:46;100043.53;;;8.53;100.00
76627;BME280;65519;53.230;10.390;2024-03-02T03:57:12;100038.34;;;8.47;100.00
76627;BME280;65519;53.230;10.390;2024-03-02T03:59:37;100031.31;;;8.51;100.00
76627;BME280;65519;53.230;10.390;2024-03-02T04:02:03;100035.63;;;8.57;100.00
76627;BME280;65519;53.230;10.390;2024-03-02T04:04:29;100019.88;;;8.49;100.00
76627;BME280;65519;53.230;10.390;2024-03-02T04:06:54;100013.66;;;8.43;100.00
76627;BME280;65519;53.230;10.390;2024-03-02T04:09:20;100023.69;;;8.32;100.00
76627;BME280;65519;53.230;10.390;2024-03-02T04:11:45;100024.47;;;8.28;100.00
76627;BME280;65519;53.230;10.390;2024-03-02T04:14:11;100045.66;;;8.21;100.00
76627;BME280;65519;53.230;10.390;2024-03-02T04:16:38;100045.31;;;7.97;100.00
76627;BME280;65519;53.230;10.390;2024-03-02T04:19:03;100037.47;;;8.11;100.00
76627;BME280;65519;53.230;10.390;2024-03-02T04:21:29;100032.56;;;8.13;100.00
76627;BME280;65519;53.230;10.390;2024-03-02T04:23:54;100029.84;;;8.13;100.00
76627;BME280;65519;53.230;10.390;2024-03-02T04:26:23;100024.16;;;8.04;100.00
76627;BME280;65519;53.230;10.390;2024-03-02T04:28:50;100032.56;;;8.13;100.00
76627;BME280;65519;53.230;10.390;2024-03-02T04:31:16;100026.63;;;8.26;100.00
76627;BME280;65519;53.230;10.390;2024-03-02T04:33:42;100025.56;;;8.22;100.00
76627;BME280;65519;53.230;10.390;2024-03-02T04:36:07;100025.56;;;8.22;100.00
76627;BME280;65519;53.230;10.390;2024-03-02T04:38:35;100035.31;;;8.28;100.00
76627;BME280;65519;53.230;10.390;2024-03-02T04:41:00;100033.44;;;8.28;100.00
76627;BME280;65519;53.230;10.390;2024-03-02T04:43:26;100030.47;;;8.40;100.00
76627;BME280;65519;53.230;10.390;2024-03-02T04:45:51;100035.09;;;8.39;100.00
76627;BME280;65519;53.230;10.390;2024-03-02T04:48:17;100035.91;;;8.40;100.00
76627;BME280;65519;53.230;10.390;2024-03-02T04:50:42;100027.19;;;8.33;100.00
76627;BME280;65519;53.230;10.390;2024-03-02T04:53:08;100033.16;;;8.20;100.00
76627;BME280;65519;53.230;10.390;2024-03-02T04:55:33;100023.91;;;8.26;100.00
76627;BME280;65519;53.230;10.390;2024-03-02T04:58:04;100039.69;;;8.29;100.00
76627;BME280;65519;53.230;10.390;2024-03-02T05:00:30;100042.91;;;8.26;100.00
76627;BME280;65519;53.230;10.390;2024-03-02T05:02:56;100034.22;;;8.09;100.00
76627;BME280;65519;53.230;10.390;2024-03-02T05:05:21;100045.63;;;8.11;100.00
76627;BME280;65519;53.230;10.390;2024-03-02T05:07:47;100038.03;;;8.18;100.00
76627;BME280;65519;53.230;10.390;2024-03-02T05:10:12;100047.22;;;8.12;100.00
76627;BME280;65519;53.230;10.390;2024-03-02T05:12:38;100046.72;;;8.25;100.00
76627;BME280;65519;53.230;10.390;2024-03-02T05:15:11;100044.56;;;8.22;100.00
76627;BME280;65519;53.230;10.390;2024-03-02T05:17:40;100045.66;;;8.31;100.00
76627;BME280;65519;53.230;10.390;2024-03-02T05:20:06;100046.50;;;8.31;100.00
76627;BME280;65519;53.230;10.390;2024-03-02T05:22:33;100041.88;;;8.32;100.00
76627;BME280;65519;53.230;10.390;2024-03-02T05:25:00;100044.25;;;8.23;100.00
76627;BME280;65519;53.230;10.390;2024-03-02T05:27:26;100027.97;;;8.13;100.00
76627;BME280;65519;53.230;10.390;2024-03-02T05:29:52;100037.47;;;8.16;100.00
76627;BME280;65519;53.230;10.390;2024-03-02T05:32:17;100037.19;;;8.12;100.00
76627;BME280;65519;53.230;10.390;2024-03-02T05:34:43;100038.03;;;8.28;100.00
76627;BME280;65519;53.230;10.390;2024-03-02T05:37:08;100032.88;;;8.21;100.00
76627;BME280;65519;53.230;10.390;2024-03-02T05:39:34;100032.06;;;8.26;100.00
76627;BME280;65519;53.230;10.390;2024-03-02T05:41:59;100034.50;;;8.17;100.00
76627;BME280;65519;53.230;10.390;2024-03-02T05:44:25;100039.66;;;8.24;100.00
76627;BME280;65519;53.230;10.390;2024-03-02T05:46:50;100038.03;;;8.18;100.00
76627;BME280;65519;53.230;10.390;2024-03-02T05:49:16;100036.94;;;8.19;100.00
76627;BME280;65519;53.230;10.390;2024-03-02T05:51:41;100035.03;;;8.24;100.00
76627;BME280;65519;53.230;10.390;2024-03-02T05:54:07;100046.44;;;8.11;100.00
76627;BME280;65519;53.230;10.390;2024-03-02T05:56:32;100053.72;;;7.95;100.00
76627;BME280;65519;53.230;10.390;2024-03-02T05:58:58;100052.63;;;8.01;100.00
76627;BME280;65519;53.230;10.390;2024-03-02T06:01:42;100052.38;;;7.98;100.00
76627;BME280;65519;53.230;10.390;2024-03-02T06:04:11;100057.53;;;8.04;100.00
76627;BME280;65519;53.230;10.390;2024-03-02T06:06:36;100055.38;;;8.06;100.00
76627;BME280;65519;53.230;10.390;2024-03-02T06:09:03;100059.19;;;8.11;100.00
76627;BME280;65519;53.230;10.390;2024-03-02T06:11:38;100054.59;;;8.11;100.00
76627;BME280;65519;53.230;10.390;2024-03-02T06:14:04;100051.31;;;8.09;100.00
76627;BME280;65519;53.230;10.390;2024-03-02T06:16:30;100060.84;;;8.22;100.00
76627;BME280;65519;53.230;10.390;2024-03-02T06:18:56;100056.47;;;8.16;100.00
76627;BME280;65519;53.230;10.390;2024-03-02T06:21:26;100055.66;;;8.10;100.00
76627;BME280;65519;53.230;10.390;2024-03-02T06:23:52;100053.22;;;8.14;100.00
76627;BME280;65519;53.230;10.390;2024-03-02T06:26:18;100052.41;;;8.23;100.00
76627;BME280;65519;53.230;10.390;2024-03-02T06:28:44;100060.84;;;8.22;100.00
76627;BME280;65519;53.230;10.390;2024-03-02T06:31:10;100061.38;;;8.24;100.00
76627;BME280;65519;53.230;10.390;2024-03-02T06:33:36;100057.56;;;8.15;100.00
76627;BME280;65519;53.230;10.390;2024-03-02T06:36:02;100063.50;;;8.12;100.00
76627;BME280;65519;53.230;10.390;2024-03-02T06:38:27;100054.25;;;7.92;100.00
76627;BME280;65519;53.230;10.390;2024-03-02T06:40:53;100055.34;;;8.01;100.00
76627;BME280;65519;53.230;10.390;2024-03-02T06:43:19;100058.09;;;8.06;100.00
76627;BME280;65519;53.230;10.390;2024-03-02T06:45:51;100063.25;;;8.08;100.00
76627;BME280;65519;53.230;10.390;2024-03-02T06:48:17;100061.09;;;8.10;100.00
76627;BME280;65519;53.230;10.390;2024-03-02T06:50:48;100062.44;;;8.07;100.00
76627;BME280;65519;53.230;10.390;2024-03-02T06:53:14;100061.34;;;8.14;100.00
76627;BME280;65519;53.230;10.390;2024-03-02T06:55:45;100071.38;;;8.03;100.00
76627;BME280;65519;53.230;10.390;2024-03-02T06:58:14;100076.00;;;8.07;100.00
76627;BME280;65519;53.230;10.390;2024-03-02T07:00:42;100071.94;;;8.10;100.00
76627;BME280;65519;53.230;10.390;2024-03-02T07:03:09;100067.34;;;8.11;100.00
76627;BME280;65519;53.230;10.390;2024-03-02T07:05:35;100073.81;;;7.99;100.00
76627;BME280;65519;53.230;10.390;2024-03-02T07:08:01;100068.69;;;8.13;100.00
76627;BME280;65519;53.230;10.390;2024-03-02T07:10:28;100063.25;;;8.08;100.00
76627;BME280;65519;53.230;10.390;2024-03-02T07:12:53;100064.63;;;8.11;100.00
76627;BME280;65519;53.230;10.390;2024-03-02T07:15:19;100058.66;;;8.19;100.00
76627;BME280;65519;53.230;10.390;2024-03-02T07:18:07;100065.16;;;8.13;100.00
76627;BME280;65519;53.230;10.390;2024-03-02T07:20:32;100063.00;;;8.10;100.00
76627;BME280;65519;53.230;10.390;2024-03-02T07:22:58;100066.25;;;8.17;100.00
76627;BME280;65519;53.230;10.390;2024-03-02T07:25:23;100063.81;;;8.15;100.00
76627;BME280;65519;53.230;10.390;2024-03-02T07:27:49;100059.19;;;8.16;100.00
76627;BME280;65519;53.230;10.390;2024-03-02T07:30:15;100063.00;;;8.25;100.00
76627;BME280;65519;53.230;10.390;2024-03-02T07:32:41;100062.75;;;8.26;100.00
76627;BME280;65519;53.230;10.390;2024-03-02T07:35:14;100067.94;;;8.33;100.00
76627;BME280;65519;53.230;10.390;2024-03-02T07:37:41;100072.00;;;8.30;100.00
76627;BME280;65519;53.230;10.390;2024-03-02T07:40:07;100084.78;;;8.35;100.00
76627;BME280;65519;53.230;10.390;2024-03-02T07:42:42;100089.91;;;8.26;100.00
76627;BME280;65519;53.230;10.390;2024-03-02T07:45:08;100094.31;;;8.43;100.00
76627;BME280;65519;53.230;10.390;2024-03-02T07:47:34;100100.53;;;8.38;100.00
76627;BME280;65519;53.230;10.390;2024-03-02T07:50:00;100098.91;;;8.37;100.00
76627;BME280;65519;53.230;10.390;2024-03-02T07:52:25;100099.44;;;8.44;100.00
76627;BME280;65519;53.230;10.390;2024-03-02T07:54:51;100104.38;;;8.52;100.00
76627;BME280;65519;53.230;10.390;2024-03-02T07:57:16;100109.53;;;8.54;100.00
76627;BME280;65519;53.230;10.390;2024-03-02T07:59:42;100110.91;;;8.51;100.00
76627;BME280;65519;53.230;10.390;2024-03-02T08:02:08;100104.34;;;8.47;100.00
76627;BME280;65519;53.230;10.390;2024-03-02T08:04:34;100121.22;;;8.59;100.00
76627;BME280;65519;53.230;10.390;2024-03-02T08:06:59;100114.97;;;8.79;100.00
76627;BME280;65519;53.230;10.390;2024-03-02T08:09:25;100117.97;;;8.77;100.00
76627;BME280;65519;53.230;10.390;2024-03-02T08:11:51;100120.97;;;9.01;100.00
76627;BME280;65519;53.230;10.390;2024-03-02T08:14:16;100120.44;;;9.04;100.00
76627;BME280;65519;53.230;10.390;2024-03-02T08:16:42;100119.88;;;9.02;100.00
76627;BME280;65519;53.230;10.390;2024-03-02T08:19:07;100119.06;;;9.07;100.00
76627;BME280;65519;53.230;10.390;2024-03-02T08:21:34;100124.22;;;9.03;100.00
76627;BME280;65519;53.230;10.390;2024-03-02T08:24:02;100126.69;;;9.05;100.00
76627;BME280;65519;53.230;10.390;2024-03-02T08:26:27;100128.28;;;9.21;100.00
76627;BME280;65519;53.230;10.390;2024-03-02T08:28:55;100124.47;;;9.32;100.00
76627;BME280;65519;53.230;10.390;2024-03-02T08:31:20;100133.97;;;9.50;100.00
76627;BME280;65519;53.230;10.390;2024-03-02T08:33:46;100133.94;;;9.55;100.00
76627;BME280;65519;53.230;10.390;2024-03-02T08:36:12;100130.38;;;9.65;100.00
76627;BME280;65519;53.230;10.390;2024-03-02T08:38:37;100131.75;;;9.67;100.00
76627;BME280;65519;53.230;10.390;2024-03-02T08:41:03;100135.81;;;9.70;100.00
76627;BME280;65519;53.230;10.390;2024-03-02T08:43:29;100140.66;;;9.88;100.00
76627;BME280;65519;53.230;10.390;2024-03-02T08:45:54;100142.06;;;9.80;100.00
76627;BME280;65519;53.230;10.390;2024-03-02T08:48:20;100133.53;;;9.97;100.00
76627;BME280;65519;53.230;10.390;2024-03-02T08:50:46;100130.22;;;10.15;100.00
76627;BME280;65519;53.230;10.390;2024-03-02T08:53:11;100135.66;;;10.15;100.00
76627;BME280;65519;53.230;10.390;2024-03-02T08:55:37;100134.50;;;10.32;100.00
76627;BME280;65519;53.230;10.390;2024-03-02T08:58:02;100134.53;;;10.27;100.00
76627;BME280;65519;53.230;10.390;2024-03-02T09:00:28;100121.56;;;10.52;100.00
76627;BME280;65519;53.230;10.390;2024-03-02T09:02:54;100115.75;;;10.69;100.00
76627;BME280;65519;53.230;10.390;2024-03-02T09:05:19;100120.03;;;10.80;100.00
76627;BME280;65519;53.230;10.390;2024-03-02T09:07:45;100123.13;;;11.03;100.00
76627;BME280;65519;53.230;10.390;2024-03-02T09:10:10;100134.50;;;11.10;100.00
76627;BME280;65519;53.230;10.390;2024-03-02T09:12:37;100133.03;;;10.88;100.00
76627;BME280;65519;53.230;10.390;2024-03-02T09:15:03;100124.94;;;10.78;100.00
76627;BME280;65519;53.230;10.390;2024-03-02T09:17:29;100124.34;;;11.15;100.00
76627;BME280;65519;53.230;10.390;2024-03-02T09:19:55;100134.34;;;11.25;100.00
76627;BME280;65519;53.230;10.390;2024-03-02T09:22:21;100136.66;;;11.42;100.00
76627;BME280;65519;53.230;10.390;2024-03-02T09:24:46;100132.63;;;11.63;100.00
76627;BME280;65519;53.230;10.390;2024-03-02T09:27:12;100130.34;;;11.75;100.00
76627;BME280;65519;53.230;10.390;2024-03-02T09:29:37;100132.63;;;11.63;100.00
76627;BME280;65519;53.230;10.390;2024-03-02T09:32:04;100135.84;;;11.94;100.00
76627;BME280;65519;53.230;10.390;2024-03-02T09:34:31;100132.78;;;11.71;100.00
76627;BME280;65519;53.230;10.390;2024-03-02T09:36:57;100131.56;;;11.88;100.00
76627;BME280;65519;53.230;10.390;2024-03-02T09:39:22;100134.69;;;12.00;100.00
76627;BME280;65519;53.230;10.390;2024-03-02T09:41:48;100135.44;;;11.82;100.00
76627;BME280;65519;53.230;10.390;2024-03-02T09:44:14;100128.78;;;12.12;100.00
76627;BME280;65519;53.230;10.390;2024-03-02T09:46:39;100146.47;;;11.95;100.00
76627;BME280;65519;53.230;10.390;2024-03-02T09:49:05;100137.63;;;12.03;100.00
76627;BME280;65519;53.230;10.390;2024-03-02T09:51:31;100136.06;;;12.21;100.00
76627;BME280;65519;53.230;10.390;2024-03-02T09:53:57;100137.16;;;12.20;100.00
76627;BME280;65519;53.230;10.390;2024-03-02T09:56:22;100141.09;;;12.33;100.00
76627;BME280;65519;53.230;10.390;2024-03-02T09:58:51;100141.97;;;12.28;100.00
76627;BME280;65519;53.230;10.390;2024-03-02T10:01:17;100149.09;;;12.48;100.00
76627;BME280;65519;53.230;10.390;2024-03-02T10:03:44;100139.91;;;12.39;100.00
76627;BME280;65519;53.230;10.390;2024-03-02T10:08:47;100140.06;;;12.29;100.00
76627;BME280;65519;53.230;10.390;2024-03-02T10:14:10;100147.97;;;12.30;100.00
76627;BME280;65519;53.230;10.390;2024-03-02T10:19:22;100151.41;;;12.17;100.00
76627;BME280;65519;53.230;10.390;2024-03-02T10:21:48;100151.69;;;12.16;100.00
76627;BME280;65519;53.230;10.390;2024-03-02T10:24:15;100151.31;;;12.22;100.00
76627;BME280;65519;53.230;10.390;2024-03-02T10:26:41;100159.44;;;12.09;100.00
76627;BME280;65519;53.230;10.390;2024-03-02T10:29:11;100148.28;;;12.05;100.00
76627;BME280;65519;53.230;10.390;2024-03-02T10:31:37;100152.81;;;12.33;100.00
76627;BME280;65519;53.230;10.390;2024-03-02T10:34:03;100156.56;;;12.42;100.00
76627;BME280;65519;53.230;10.390;2024-03-02T10:36:29;100153.44;;;12.68;100.00
76627;BME280;65519;53.230;10.390;2024-03-02T10:38:56;100158.41;;;12.85;100.00
76627;BME280;65519;53.230;10.390;2024-03-02T10:41:26;100154.59;;;12.99;100.00
76627;BME280;65519;53.230;10.390;2024-03-02T10:43:56;100163.31;;;13.01;100.00
76627;BME280;65519;53.230;10.390;2024-03-02T10:46:28;100162.00;;;12.80;100.00
76627;BME280;65519;53.230;10.390;2024-03-02T10:48:55;100159.41;;;13.07;100.00
76627;BME280;65519;53.230;10.390;2024-03-02T10:51:21;100155.56;;;13.27;100.00
76627;BME280;65519;53.230;10.390;2024-03-02T10:53:46;100173.72;;;13.37;100.00
76627;BME280;65519;53.230;10.390;2024-03-02T10:56:16;100165.84;;;13.17;100.00
76627;BME280;65519;53.230;10.390;2024-03-02T10:58:50;100160.25;;;13.40;100.00
76627;BME280;65519;53.230;10.390;2024-03-02T11:01:17;100162.47;;;13.38;100.00
76627;BME280;65519;53.230;10.390;2024-03-02T11:03:44;100161.88;;;13.55;100.00
76627;BME280;65519;53.230;10.390;2024-03-02T11:06:11;100154.47;;;13.42;100.00
76627;BME280;65519;53.230;10.390;2024-03-02T11:08:38;100159.09;;;13.09;100.00
76627;BME280;65519;53.230;10.390;2024-03-02T11:11:07;100159.63;;;13.30;100.00
76627;BME280;65519;53.230;10.390;2024-03-02T11:13:37;100162.84;;;13.32;100.00
76627;BME280;65519;53.230;10.390;2024-03-02T11:16:12;100170.88;;;13.28;100.00
76627;BME280;65519;53.230;10.390;2024-03-02T11:18:42;100173.56;;;13.14;100.00
76627;BME280;65519;53.230;10.390;2024-03-02T11:21:07;100158.06;;;13.24;100.00
76627;BME280;65519;53.230;10.390;2024-03-02T11:23:34;100162.34;;;13.30;100.00
76627;BME280;65519;53.230;10.390;2024-03-02T11:26:19;100161.03;;;13.27;100.00
76627;BME280;65519;53.230;10.390;2024-03-02T11:28:45;100157.28;;;13.37;100.00
76627;BME280;65519;53.230;10.390;2024-03-02T11:31:11;100164.28;;;13.29;100.00
76627;BME280;65519;53.230;10.390;2024-03-02T11:33:36;100160.53;;;13.06;100.00
76627;BME280;65519;53.230;10.390;2024-03-02T11:36:02;100149.56;;;13.06;100.00
76627;BME280;65519;53.230;10.390;2024-03-02T11:38:33;100161.69;;;13.00;100.00
76627;BME280;65519;53.230;10.390;2024-03-02T11:41:00;100162.44;;;13.25;100.00
76627;BME280;65519;53.230;10.390;2024-03-02T11:43:28;100160.09;;;13.32;100.00
76627;BME280;65519;53.230;10.390;2024-03-02T11:45:58;100158.06;;;13.24;100.00
76627;BME280;65519;53.230;10.390;2024-03-02T11:48:25;100158.84;;;13.57;100.00
76627;BME280;65519;53.230;10.390;2024-03-02T11:50:51;100157.03;;;13.66;100.00
76627;BME280;65519;53.230;10.390;2024-03-02T11:53:17;100159.59;;;13.62;100.00
76627;BME280;65519;53.230;10.390;2024-03-02T11:55:44;100163.31;;;13.52;100.00
76627;BME280;65519;53.230;10.390;2024-03-02T11:58:12;100154.97;;;13.44;100.00
76627;BME280;65519;53.230;10.390;2024-03-02T12:00:38;100155.38;;;13.37;100.00
76627;BME280;65519;53.230;10.390;2024-03-02T12:03:08;100152.16;;;13.49;100.00
76627;BME280;65519;53.230;10.390;2024-03-02T12:05:34;100155.50;;;13.46;100.00
76627;BME280;65519;53.230;10.390;2024-03-02T12:08:03;100152.75;;;13.46;100.00
76627;BME280;65519;53.230;10.390;2024-03-02T12:10:31;100157.34;;;13.50;100.00
76627;BME280;65519;53.230;10.390;2024-03-02T12:15:32;100150.88;;;13.28;100.00
76627;BME280;65519;53.230;10.390;2024-03-02T12:18:00;100158.00;;;13.42;100.00
76627;BME280;65519;53.230;10.390;2024-03-02T12:20:27;100151.72;;;13.28;100.00
76627;BME280;65519;53.230;10.390;2024-03-02T12:22:55;100152.53;;;13.42;100.00
76627;BME280;65519;53.230;10.390;2024-03-02T12:25:23;100148.31;;;13.50;100.00
76627;BME280;65519;53.230;10.390;2024-03-02T12:27:50;100151.72;;;13.42;100.00
76627;BME280;65519;53.230;10.390;2024-03-02T12:30:18;100149.72;;;13.47;100.00
76627;BME280;65519;53.230;10.390;2024-03-02T12:32:44;100144.34;;;13.56;100.00
76627;BME280;65519;53.230;10.390;2024-03-02T12:35:10;100143.44;;;13.47;100.00
76627;BME280;65519;53.230;10.390;2024-03-02T12:37:47;100143.84;;;13.40;100.00
76627;BME280;65519;53.230;10.390;2024-03-02T12:40:14;100139.16;;;13.41;100.00
76627;BME280;65519;53.230;10.390;2024-03-02T12:42:40;100146.69;;;13.49;100.00
76627;BME280;65519;53.230;10.390;2024-03-02T12:45:08;100141.53;;;13.61;100.00
76627;BME280;65519;53.230;10.390;2024-03-02T12:47:34;100145.34;;;13.46;100.00
76627;BME280;65519;53.230;10.390;2024-03-02T12:50:00;100149.31;;;13.40;100.00
76627;BME280;65519;53.230;10.390;2024-03-02T12:52:26;100147.22;;;13.19;100.00